createdAt,value
2019-02-19T00:01:08.754Z,29.63
2019-02-19T00:03:37.384Z,31.70
2019-02-19T00:06:06.033Z,29.13
2019-02-19T00:08:34.584Z,34.47
2019-02-19T00:11:03.363Z,34.80
2019-02-19T00:13:31.985Z,35.03
2019-02-19T00:16:00.615Z,34.80
2019-02-19T00:18:29.237Z,35.87
2019-02-19T00:20:57.907Z,32.40
2019-02-19T00:23:26.460Z,32.37
2019-02-19T00:25:54.957Z,34.53
2019-02-19T00:28:23.613Z,30.17
2019-02-19T00:30:52.282Z,29.03
2019-02-19T00:33:20.774Z,29.77
2019-02-19T00:35:49.372Z,26.57
2019-02-19T00:38:17.996Z,26.27
2019-02-19T00:40:46.619Z,27.90
2019-02-19T00:43:15.157Z,25.80
2019-02-19T00:45:44.800Z,25.70
2019-02-19T00:48:13.417Z,28.40
2019-02-19T00:50:42.074Z,27.20
2019-02-19T00:53:10.558Z,26.07
2019-02-19T00:55:39.177Z,27.13
2019-02-19T00:58:08.069Z,29.50
2019-02-19T01:00:36.623Z,36.53
2019-02-19T01:03:05.286Z,42.70
2019-02-19T01:05:34.065Z,44.20
2019-02-19T01:08:02.631Z,58.93
2019-02-19T01:10:31.188Z,56.93
2019-02-19T01:13:00.169Z,66.00
2019-02-19T01:15:28.873Z,66.33
2019-02-19T01:17:57.379Z,68.43
2019-02-19T01:20:25.942Z,70.67
2019-02-19T01:22:54.603Z,62.97
2019-02-19T01:25:23.237Z,64.87
2019-02-19T01:27:51.793Z,64.47
2019-02-19T01:30:20.363Z,63.80
2019-02-19T01:32:48.987Z,48.03
2019-02-19T01:35:17.739Z,43.47
2019-02-19T01:37:47.296Z,45.90
2019-02-19T01:40:15.863Z,40.90
2019-02-19T01:42:44.486Z,34.07
2019-02-19T01:45:13.124Z,33.07
2019-02-19T01:47:41.725Z,33.33
2019-02-19T01:50:10.955Z,32.27
2019-02-19T01:52:39.573Z,30.33
2019-02-19T01:55:08.917Z,31.27
2019-02-19T01:57:37.462Z,30.67
2019-02-19T02:00:09.093Z,29.70
2019-02-19T02:02:37.721Z,29.47
2019-02-19T02:05:06.413Z,31.87
2019-02-19T02:07:34.993Z,32.17
2019-02-19T02:10:04.411Z,32.47
2019-02-19T02:12:33.047Z,31.10
2019-02-19T02:15:01.620Z,32.50
2019-02-19T02:17:30.278Z,32.23
2019-02-19T02:19:58.899Z,32.00
2019-02-19T02:22:27.396Z,33.60
2019-02-19T02:24:55.880Z,36.53
2019-02-19T02:27:24.504Z,40.50
2019-02-19T02:29:53.165Z,40.63
2019-02-19T02:32:21.647Z,39.00
2019-02-19T02:34:50.148Z,36.23
2019-02-19T02:37:19.045Z,44.70
2019-02-19T02:39:47.680Z,44.80
2019-02-19T02:42:32.275Z,42.17
2019-02-19T02:45:00.921Z,41.10
2019-02-19T02:47:29.556Z,41.17
2019-02-19T02:49:58.180Z,38.30
2019-02-19T02:52:26.700Z,36.97
2019-02-19T02:54:55.319Z,45.17
2019-02-19T02:57:23.880Z,52.97
2019-02-19T02:59:52.427Z,52.23
2019-02-19T03:02:21.037Z,46.00
2019-02-19T03:04:49.674Z,46.70
2019-02-19T03:07:28.476Z,48.17
2019-02-19T03:09:56.971Z,45.60
2019-02-19T03:12:25.601Z,40.90
2019-02-19T03:14:54.429Z,38.30
2019-02-19T03:17:22.997Z,35.73
2019-02-19T03:19:51.472Z,35.87
2019-02-19T03:22:20.168Z,38.53
2019-02-19T03:24:48.800Z,36.20
2019-02-19T03:27:17.292Z,37.33
2019-02-19T03:29:45.810Z,35.33
2019-02-19T03:32:14.436Z,36.27
2019-02-19T03:34:42.988Z,32.47
2019-02-19T03:37:11.864Z,31.83
2019-02-19T03:39:40.485Z,30.23
2019-02-19T03:42:09.111Z,31.90
2019-02-19T03:44:37.655Z,26.43
2019-02-19T03:47:06.276Z,22.30
2019-02-19T03:49:34.909Z,20.00
2019-02-19T03:52:03.518Z,15.07
2019-02-19T03:54:32.145Z,16.70
2019-02-19T03:57:01.082Z,16.83
2019-02-19T03:59:29.761Z,22.00
2019-02-19T04:01:58.486Z,20.97
2019-02-19T04:04:27.111Z,29.13
2019-02-19T04:06:55.794Z,22.27
2019-02-19T04:09:24.414Z,30.10
2019-02-19T04:11:52.910Z,38.33
2019-02-19T04:14:21.582Z,47.30
2019-02-19T04:16:50.081Z,49.17
2019-02-19T04:19:18.677Z,47.97
2019-02-19T04:21:47.346Z,48.27
2019-02-19T04:24:16.000Z,39.83
2019-02-19T04:26:44.480Z,32.47
2019-02-19T04:29:12.958Z,33.40
2019-02-19T04:31:41.625Z,25.67
2019-02-19T04:34:10.252Z,27.30
2019-02-19T04:36:38.809Z,27.83
2019-02-19T04:39:07.583Z,30.47
2019-02-19T04:41:36.217Z,36.00
2019-02-19T04:44:04.854Z,30.67
2019-02-19T04:46:33.617Z,32.33
2019-02-19T04:49:02.177Z,31.93
2019-02-19T04:51:30.801Z,33.47
2019-02-19T04:53:59.350Z,34.50
2019-02-19T04:56:27.971Z,29.53
2019-02-19T04:58:56.600Z,33.87
2019-02-19T05:01:25.202Z,39.37
2019-02-19T05:04:01.095Z,40.47
2019-02-19T05:06:29.920Z,41.83
2019-02-19T05:08:58.553Z,43.27
2019-02-19T05:15:10.511Z,42.43
2019-02-19T05:17:39.212Z,41.53
2019-02-19T05:20:09.337Z,45.43
2019-02-19T05:22:37.973Z,40.10
2019-02-19T05:25:08.033Z,43.10
2019-02-19T05:27:36.660Z,47.27
2019-02-19T05:30:10.719Z,39.67
2019-02-19T05:32:39.234Z,44.73
2019-02-19T05:35:08.670Z,48.70
2019-02-19T05:37:37.161Z,56.17
2019-02-19T05:40:08.046Z,61.70
2019-02-19T05:42:36.669Z,61.83
2019-02-19T05:45:08.272Z,56.27
2019-02-19T05:50:41.458Z,54.40
2019-02-19T05:53:10.141Z,53.73
2019-02-19T05:55:38.778Z,53.08
2019-02-19T05:58:07.282Z,52.85
2019-02-19T06:00:35.879Z,54.80
2019-02-19T06:03:04.520Z,54.73
2019-02-19T06:05:33.158Z,57.05
2019-02-19T06:08:01.746Z,58.28
2019-02-19T06:10:30.382Z,56.88
2019-02-19T06:12:59.014Z,56.35
2019-02-19T06:15:27.542Z,58.17
2019-02-19T06:17:56.170Z,59.05
2019-02-19T06:20:24.802Z,59.38
2019-02-19T06:22:53.345Z,62.90
2019-02-19T06:25:21.826Z,66.37
2019-02-19T06:27:50.554Z,64.53
2019-02-19T06:30:19.213Z,62.98
2019-02-19T06:32:47.702Z,69.60
2019-02-19T06:35:16.342Z,69.67
2019-02-19T06:37:45.029Z,71.90
2019-02-19T06:40:25.633Z,77.30
2019-02-19T06:42:54.299Z,75.42
2019-02-19T06:45:22.926Z,79.47
2019-02-19T06:47:51.564Z,80.80
2019-02-19T06:50:20.248Z,72.87
2019-02-19T06:52:48.748Z,69.97
2019-02-19T06:55:17.318Z,74.58
2019-02-19T06:57:45.976Z,62.08
2019-02-19T07:00:14.929Z,72.10
2019-02-19T07:02:50.631Z,64.80
2019-02-19T07:05:20.784Z,49.95
2019-02-19T07:07:49.419Z,50.23
2019-02-19T07:10:18.052Z,50.88
2019-02-19T07:12:46.555Z,56.53
2019-02-19T07:15:15.172Z,59.40
2019-02-19T07:17:43.803Z,57.13
2019-02-19T07:20:12.454Z,58.35
2019-02-19T07:22:40.962Z,56.70
2019-02-19T07:25:12.724Z,52.85
2019-02-19T07:27:41.399Z,54.42
2019-02-19T07:30:11.630Z,53.08
2019-02-19T07:32:40.270Z,50.70
2019-02-19T07:35:10.104Z,55.10
2019-02-19T07:37:38.664Z,52.83
2019-02-19T07:40:09.010Z,52.15
2019-02-19T07:42:37.645Z,55.35
2019-02-19T07:45:09.225Z,51.68
2019-02-19T07:47:37.859Z,50.28
2019-02-19T07:50:09.085Z,50.78
2019-02-19T07:52:38.022Z,51.15
2019-02-19T07:55:10.512Z,53.35
2019-02-19T07:57:39.109Z,55.03
2019-02-19T08:00:10.933Z,50.55
2019-02-19T08:02:39.553Z,49.38
2019-02-19T08:05:08.429Z,46.18
2019-02-19T08:07:36.911Z,49.58
2019-02-19T08:10:08.217Z,46.92
2019-02-19T08:12:37.025Z,47.10
2019-02-19T08:15:12.803Z,49.80
2019-02-19T08:17:41.438Z,47.35
2019-02-19T08:20:15.698Z,44.95
2019-02-19T08:22:40.665Z,46.75
2019-02-19T08:25:09.330Z,46.37
2019-02-19T08:27:37.959Z,47.08
2019-02-19T08:30:10.989Z,47.67
2019-02-19T08:32:39.192Z,49.45
2019-02-19T08:35:08.160Z,48.50
2019-02-19T08:37:36.790Z,51.40
2019-02-19T08:40:07.766Z,48.13
2019-02-19T08:42:36.267Z,47.10
2019-02-19T08:45:06.605Z,50.50
2019-02-19T08:47:42.248Z,49.20
2019-02-19T08:50:07.711Z,46.92
2019-02-19T08:52:36.238Z,47.25
2019-02-19T08:55:05.520Z,47.33
2019-02-19T08:57:34.021Z,47.78
2019-02-19T09:00:02.590Z,48.25
2019-02-19T09:02:31.267Z,47.10
2019-02-19T09:04:59.895Z,45.92
2019-02-19T09:07:28.387Z,47.27
2019-02-19T09:09:56.928Z,46.18
2019-02-19T09:12:25.560Z,46.65
2019-02-19T09:14:54.191Z,45.12
2019-02-19T09:17:22.708Z,46.37
2019-02-19T09:19:51.208Z,46.23
2019-02-19T09:22:19.837Z,44.98
2019-02-19T09:24:48.657Z,47.05
2019-02-19T09:27:17.213Z,41.33
2019-02-19T09:29:47.560Z,42.90
2019-02-19T09:32:16.067Z,42.50
2019-02-19T09:34:44.637Z,42.67
2019-02-19T09:37:13.273Z,43.25
2019-02-19T09:39:41.948Z,43.35
2019-02-19T09:42:10.469Z,42.83
2019-02-19T09:44:38.925Z,42.17
2019-02-19T09:47:07.630Z,41.37
2019-02-19T09:49:36.310Z,40.43
2019-02-19T09:52:04.965Z,40.80
2019-02-19T09:54:33.551Z,39.10
2019-02-19T09:57:02.194Z,39.83
2019-02-19T09:59:30.808Z,39.95
2019-02-19T10:01:59.687Z,37.65
2019-02-19T10:04:28.240Z,35.73
2019-02-19T10:06:56.882Z,36.75
2019-02-19T10:09:25.527Z,37.55
2019-02-19T10:11:54.022Z,33.80
2019-02-19T10:14:22.705Z,37.30
2019-02-19T10:16:51.181Z,37.30
2019-02-19T10:19:19.670Z,38.35
2019-02-19T10:21:48.346Z,36.53
2019-02-19T10:24:16.986Z,32.98
2019-02-19T10:26:45.529Z,31.52
2019-02-19T10:29:14.031Z,32.03
2019-02-19T10:31:42.666Z,32.00
2019-02-19T10:34:11.344Z,30.02
2019-02-19T10:36:39.837Z,30.62
2019-02-19T10:39:10.914Z,29.48
2019-02-19T10:41:39.573Z,31.93
2019-02-19T10:44:08.201Z,32.75
2019-02-19T10:46:36.876Z,34.20
2019-02-19T10:49:12.588Z,28.83
2019-02-19T10:51:41.462Z,29.75
2019-02-19T10:54:10.048Z,29.82
2019-02-19T10:56:38.670Z,30.62
2019-02-19T10:59:07.390Z,30.43
2019-02-19T11:01:36.060Z,26.85
2019-02-19T11:04:04.680Z,27.55
2019-02-19T11:06:33.563Z,30.95
2019-02-19T11:09:02.271Z,33.08
2019-02-19T11:11:30.836Z,26.77
2019-02-19T11:13:59.355Z,28.38
2019-02-19T11:16:27.985Z,23.52
2019-02-19T11:18:56.627Z,26.45
2019-02-19T11:21:25.145Z,25.40
2019-02-19T11:23:53.648Z,23.90
2019-02-19T11:26:22.284Z,22.52
2019-02-19T11:28:50.967Z,21.33
2019-02-19T11:31:19.532Z,21.07
2019-02-19T11:33:48.241Z,20.52
2019-02-19T11:36:16.844Z,22.17
2019-02-19T11:38:45.400Z,19.32
2019-02-19T11:41:14.025Z,21.12
2019-02-19T11:43:42.685Z,16.20
2019-02-19T11:46:11.255Z,17.77
2019-02-19T11:48:39.749Z,19.75
2019-02-19T11:51:08.466Z,22.48
2019-02-19T11:53:37.101Z,24.87
2019-02-19T11:56:05.735Z,15.40
2019-02-19T11:58:34.343Z,9.98
2019-02-19T12:01:03.041Z,9.60
2019-02-19T12:03:31.676Z,7.53
2019-02-19T12:06:00.282Z,7.08
2019-02-19T12:08:28.766Z,6.92
2019-02-19T12:10:57.387Z,7.42
2019-02-19T12:13:26.021Z,6.90
2019-02-19T12:15:54.675Z,7.17
2019-02-19T12:18:23.366Z,7.42
2019-02-19T12:20:51.997Z,5.30
2019-02-19T12:23:20.622Z,5.28
2019-02-19T12:25:49.272Z,5.95
2019-02-19T12:28:17.747Z,5.55
2019-02-19T12:30:46.459Z,5.90
2019-02-19T12:33:15.309Z,5.55
2019-02-19T12:35:43.800Z,6.03
2019-02-19T12:38:12.378Z,5.78
2019-02-19T12:40:41.020Z,6.70
2019-02-19T12:43:09.701Z,7.40
2019-02-19T12:45:38.311Z,8.25
2019-02-19T12:48:07.035Z,7.87
2019-02-19T12:50:35.615Z,8.13
2019-02-19T12:53:04.234Z,8.03
2019-02-19T12:55:32.902Z,7.67
2019-02-19T12:58:01.530Z,9.20
2019-02-19T13:00:30.016Z,8.73
2019-02-19T13:02:58.554Z,8.63
2019-02-19T13:05:27.193Z,9.23
2019-02-19T13:07:55.830Z,8.55
2019-02-19T13:10:24.349Z,9.13
2019-02-19T13:12:52.918Z,9.88
2019-02-19T13:15:22.447Z,9.28
2019-02-19T13:17:51.277Z,10.15
2019-02-19T13:20:19.856Z,10.53
2019-02-19T13:22:48.337Z,9.65
2019-02-19T13:25:17.176Z,9.45
2019-02-19T13:27:45.801Z,9.73
2019-02-19T13:30:16.878Z,8.53
2019-02-19T13:32:45.538Z,8.55
2019-02-19T13:35:14.368Z,6.83
2019-02-19T13:37:43.014Z,7.83
2019-02-19T13:40:16.553Z,7.47
2019-02-19T13:42:45.176Z,7.47
2019-02-19T13:45:15.202Z,7.53
2019-02-19T13:47:43.864Z,8.33
2019-02-19T13:50:18.117Z,6.97
2019-02-19T13:52:51.510Z,7.12
2019-02-19T13:55:21.701Z,7.00
2019-02-19T13:57:50.398Z,8.33
2019-02-19T14:00:20.644Z,6.60
2019-02-19T14:02:49.320Z,6.60
2019-02-19T14:05:17.878Z,6.12
2019-02-19T14:07:46.358Z,6.70
2019-02-19T14:10:15.046Z,7.67
2019-02-19T14:12:43.675Z,6.92
2019-02-19T14:15:20.101Z,6.58
2019-02-19T14:17:48.720Z,5.95
2019-02-19T14:20:21.575Z,6.95
2019-02-19T14:22:54.464Z,7.53
2019-02-19T14:25:33.545Z,6.92
2019-02-19T14:28:15.881Z,6.03
2019-02-19T14:30:58.291Z,5.67
2019-02-19T14:33:48.651Z,6.25
2019-02-19T14:36:12.410Z,5.47
2019-02-19T14:38:48.712Z,7.35
2019-02-19T14:41:18.915Z,4.78
2019-02-19T14:44:05.614Z,8.13
2019-02-19T14:46:48.090Z,5.53
2019-02-19T14:49:37.504Z,8.85
2019-02-19T14:52:09.371Z,6.75
2019-02-19T14:54:39.690Z,13.28
2019-02-19T14:57:18.380Z,7.90
2019-02-19T14:59:57.840Z,5.47
2019-02-19T15:02:37.393Z,4.90
2019-02-19T15:05:14.695Z,5.70
2019-02-19T15:08:01.521Z,5.80
2019-02-19T15:10:48.282Z,5.20
2019-02-19T15:13:21.577Z,5.35
2019-02-19T15:16:00.751Z,7.22
2019-02-19T15:18:46.219Z,6.25
2019-02-19T15:21:25.664Z,7.40
2019-02-19T15:23:59.021Z,5.72
2019-02-19T15:26:47.584Z,7.50
2019-02-19T15:29:26.708Z,5.15
2019-02-19T15:32:13.223Z,6.15
2019-02-19T15:34:43.490Z,6.37
2019-02-19T15:37:25.745Z,7.00
2019-02-19T15:40:12.189Z,6.62
2019-02-19T15:42:48.491Z,6.42
2019-02-19T15:45:21.389Z,6.00
2019-02-19T15:48:07.847Z,7.60
2019-02-19T15:50:56.454Z,9.95
2019-02-19T15:53:42.028Z,9.88
2019-02-19T15:56:17.596Z,10.82
2019-02-19T15:58:59.317Z,11.68
2019-02-19T16:01:44.494Z,14.05
2019-02-19T16:04:15.001Z,13.03
2019-02-19T16:06:45.133Z,12.05
2019-02-19T16:09:31.540Z,11.65
2019-02-19T16:12:07.728Z,12.45
2019-02-19T16:14:44.011Z,14.30
2019-02-19T16:17:23.113Z,13.98
2019-02-19T16:20:02.676Z,15.03
2019-02-19T16:22:32.887Z,12.70
2019-02-19T16:25:17.865Z,11.48
2019-02-19T16:27:57.167Z,10.30
2019-02-19T16:30:30.145Z,10.32
2019-02-19T16:33:09.214Z,10.30
2019-02-19T16:35:39.442Z,12.68
2019-02-19T16:38:09.781Z,12.20
2019-02-19T16:40:40.045Z,12.35
2019-02-19T16:43:16.204Z,10.10
2019-02-19T16:45:46.320Z,11.03
2019-02-19T16:48:35.190Z,10.10
2019-02-19T16:51:16.390Z,11.50
2019-02-19T16:53:46.614Z,9.95
2019-02-19T16:56:22.730Z,9.80
2019-02-19T16:58:53.185Z,9.95
2019-02-19T17:01:26.100Z,9.55
2019-02-19T17:04:08.524Z,10.25
2019-02-19T17:06:47.730Z,12.53
2019-02-19T17:09:18.049Z,10.95
2019-02-19T17:11:57.334Z,11.88
2019-02-19T17:14:33.749Z,10.50
2019-02-19T17:17:04.006Z,10.40
2019-02-19T17:19:50.646Z,9.08
2019-02-19T17:22:23.254Z,7.97
2019-02-19T17:25:09.995Z,9.15
2019-02-19T17:27:49.058Z,10.18
2019-02-19T17:30:28.181Z,8.98
2019-02-19T17:33:01.356Z,9.65
2019-02-19T17:35:37.552Z,10.30
2019-02-19T17:38:16.856Z,13.72
2019-02-19T17:40:55.969Z,18.25
2019-02-19T17:43:26.092Z,24.40
2019-02-19T17:45:59.316Z,16.93
2019-02-19T17:48:35.427Z,17.92
2019-02-19T17:51:14.938Z,16.97
2019-02-19T17:53:45.176Z,14.98
2019-02-19T17:56:24.639Z,20.35
2019-02-19T17:58:57.976Z,19.92
2019-02-19T18:01:40.264Z,20.97
2019-02-19T18:04:25.812Z,20.20
2019-02-19T18:06:56.100Z,20.50
2019-02-19T18:09:26.361Z,19.15
2019-02-19T18:11:59.519Z,20.88
2019-02-19T18:14:46.239Z,17.00
2019-02-19T18:17:31.502Z,17.70
2019-02-19T18:20:00.290Z,18.20
2019-02-19T18:22:28.717Z,17.85
2019-02-19T18:24:57.381Z,18.10
2019-02-19T18:27:25.937Z,17.95
2019-02-19T18:29:54.503Z,19.48
2019-02-19T18:32:23.216Z,18.02
2019-02-19T18:34:51.832Z,14.90
2019-02-19T18:37:20.368Z,15.65
2019-02-19T18:39:48.946Z,16.35
2019-02-19T18:42:17.578Z,17.40
2019-02-19T18:44:46.209Z,19.98
2019-02-19T18:47:14.700Z,19.10
2019-02-19T18:49:43.302Z,19.90
2019-02-19T18:52:11.966Z,17.17
2019-02-19T18:54:49.880Z,18.57
2019-02-19T18:57:18.384Z,18.87
2019-02-19T18:59:46.941Z,17.85
2019-02-19T19:02:15.570Z,20.57
2019-02-19T19:04:44.052Z,18.50
2019-02-19T19:07:12.726Z,16.97
2019-02-19T19:09:41.352Z,16.93
2019-02-19T19:12:09.913Z,17.60
2019-02-19T19:14:38.462Z,17.87
2019-02-19T19:17:07.126Z,17.35
2019-02-19T19:19:35.758Z,16.60
2019-02-19T19:22:04.307Z,18.73
2019-02-19T19:24:32.963Z,17.92
2019-02-19T19:27:01.594Z,18.15
2019-02-19T19:29:31.271Z,17.87
2019-02-19T19:32:00.037Z,18.87
2019-02-19T19:34:28.516Z,18.37
2019-02-19T19:36:57.147Z,20.50
2019-02-19T19:39:25.814Z,18.60
2019-02-19T19:41:54.308Z,17.55
2019-02-19T19:44:24.906Z,17.62
2019-02-19T19:46:53.179Z,18.17
2019-02-19T19:49:21.747Z,17.60
2019-02-19T19:51:50.387Z,18.80
2019-02-19T19:54:19.057Z,18.85
2019-02-19T19:56:47.613Z,21.10
2019-02-19T19:59:16.166Z,18.57
2019-02-19T20:01:44.839Z,18.52
2019-02-19T20:04:13.457Z,16.97
2019-02-19T20:06:41.968Z,17.35
2019-02-19T20:09:10.659Z,16.12
2019-02-19T20:11:39.290Z,19.32
2019-02-19T20:14:07.921Z,21.52
2019-02-19T20:16:36.613Z,19.90
2019-02-19T20:19:05.299Z,17.95
2019-02-19T20:21:33.913Z,19.12
2019-02-19T20:24:02.430Z,20.30
2019-02-19T20:26:31.049Z,22.20
2019-02-19T20:28:59.675Z,22.40
2019-02-19T20:31:28.269Z,21.40
2019-02-19T20:33:56.755Z,18.77
2019-02-19T20:36:25.390Z,21.17
2019-02-19T20:38:54.043Z,23.73
2019-02-19T20:41:22.606Z,24.35
2019-02-19T20:43:51.178Z,26.35
2019-02-19T20:46:19.842Z,25.10
2019-02-19T20:48:48.479Z,30.55
2019-02-19T20:51:17.056Z,24.12
2019-02-19T20:53:45.589Z,24.95
2019-02-19T20:56:14.217Z,24.20
2019-02-19T20:58:42.853Z,27.98
2019-02-19T21:01:11.386Z,31.42
2019-02-19T21:03:40.024Z,26.70
2019-02-19T21:06:10.312Z,32.53
2019-02-19T21:08:39.274Z,32.33
2019-02-19T21:11:07.946Z,45.60
2019-02-19T21:13:36.569Z,41.23
2019-02-19T21:16:05.447Z,42.25
2019-02-19T21:18:33.942Z,42.88
2019-02-19T21:21:02.733Z,56.48
2019-02-19T21:23:31.724Z,55.30
2019-02-19T21:26:00.299Z,51.53
2019-02-19T21:28:28.869Z,54.03
2019-02-19T21:30:57.557Z,57.78
2019-02-19T21:33:26.196Z,60.52
2019-02-19T21:35:57.823Z,61.55
2019-02-19T21:38:25.023Z,67.25
2019-02-19T21:40:53.670Z,62.65
2019-02-19T21:43:22.160Z,62.58
2019-02-19T21:45:50.838Z,63.68
2019-02-19T21:48:19.474Z,66.87
2019-02-19T21:50:47.982Z,68.42
2019-02-19T21:53:16.534Z,71.87
2019-02-19T21:55:45.174Z,73.87
2019-02-19T21:58:13.809Z,76.62
2019-02-19T22:00:42.418Z,73.52
2019-02-19T22:03:10.904Z,77.42
2019-02-19T22:05:39.541Z,78.30
2019-02-19T22:08:08.215Z,72.08
2019-02-19T22:10:36.697Z,65.03
2019-02-19T22:13:05.258Z,75.92
2019-02-19T22:15:33.943Z,64.50
2019-02-19T22:18:02.583Z,69.50
2019-02-19T22:20:35.901Z,65.23
2019-02-19T22:23:04.649Z,76.57
2019-02-19T22:25:33.293Z,62.65
2019-02-19T22:28:01.933Z,58.40
2019-02-19T22:30:30.807Z,66.15
2019-02-19T22:33:05.408Z,74.30
2019-02-19T22:35:33.977Z,66.97
2019-02-19T22:38:02.712Z,60.58
2019-02-19T22:40:31.345Z,58.45
2019-02-19T22:42:59.974Z,52.60
2019-02-19T22:45:28.501Z,49.45
2019-02-19T22:47:56.989Z,44.05
2019-02-19T22:50:25.619Z,40.37
2019-02-19T22:52:54.271Z,39.70
2019-02-19T22:55:33.448Z,38.00
2019-02-19T22:58:02.127Z,37.50
2019-02-19T23:00:47.232Z,35.10
2019-02-19T23:03:17.728Z,34.20
2019-02-19T23:05:46.355Z,33.17
2019-02-19T23:08:14.924Z,34.65
2019-02-19T23:10:43.578Z,32.55
2019-02-19T23:13:12.200Z,30.10
2019-02-19T23:15:40.768Z,38.13
2019-02-19T23:18:09.299Z,38.20
2019-02-19T23:20:37.921Z,40.20
2019-02-19T23:23:06.573Z,39.50
2019-02-19T23:28:39.330Z,38.38
2019-02-19T23:31:07.882Z,37.97
2019-02-19T23:33:36.507Z,38.60
2019-02-19T23:36:18.819Z,36.88
2019-02-19T23:38:47.312Z,36.37
2019-02-19T23:41:15.810Z,38.75
2019-02-19T23:43:44.483Z,36.77
2019-02-19T23:46:12.968Z,38.13
2019-02-19T23:48:41.612Z,38.53
2019-02-19T23:51:10.265Z,37.70
2019-02-19T23:53:38.919Z,38.53
2019-02-19T23:56:07.443Z,38.00
2019-02-19T23:58:36.112Z,38.80
